createdAt,value
2019-04-26T00:04:10.335Z,14.1
2019-04-26T00:09:39.096Z,14.1
2019-04-26T00:15:07.154Z,14.1
2019-04-26T00:20:34.974Z,14.1
2019-04-26T00:31:33.046Z,14
2019-04-26T00:37:01.146Z,14
2019-04-26T00:42:28.862Z,14
2019-04-26T00:47:57.841Z,14
2019-04-26T00:53:26.590Z,14
2019-04-26T00:58:53.864Z,13.9
2019-04-26T01:04:22.995Z,13.9
2019-04-26T01:09:51.505Z,14
2019-04-26T01:15:19.931Z,14.1
2019-04-26T01:20:46.502Z,14.1
2019-04-26T01:31:44.469Z,14.1
2019-04-26T01:37:13.373Z,14.1
2019-04-26T01:42:42.357Z,14
2019-04-26T01:48:10.994Z,14
2019-04-26T01:53:38.269Z,14
2019-04-26T01:59:07.212Z,14
2019-04-26T02:04:36.378Z,14
2019-04-26T02:10:04.201Z,14
2019-04-26T02:15:33.462Z,13.9
2019-04-26T02:21:01.212Z,13.9
2019-04-26T02:26:30.390Z,13.8
2019-04-26T02:31:59.380Z,13.8
2019-04-26T02:37:28.303Z,13.8
2019-04-26T02:42:55.731Z,13.8
2019-04-26T02:48:23.726Z,13.8
2019-04-26T02:53:51.849Z,13.8
2019-04-26T02:59:20.752Z,13.7
2019-04-26T03:04:48.524Z,13.7
2019-04-26T03:10:16.587Z,13.7
2019-04-26T03:15:44.309Z,13.7
2019-04-26T03:21:13.294Z,13.7
2019-04-26T03:26:43.302Z,13.6
2019-04-26T03:32:16.078Z,13.6
2019-04-26T03:37:39.809Z,13.6
2019-04-26T03:43:06.276Z,13.5
2019-04-26T03:48:35.367Z,13.5
2019-04-26T03:54:02.599Z,13.5
2019-04-26T03:59:30.841Z,13.5
2019-04-26T04:04:59.476Z,13.4
2019-04-26T04:10:37.367Z,13.4
2019-04-26T04:15:58.778Z,13.4
2019-04-26T04:21:26.325Z,13.3
2019-04-26T04:26:54.202Z,13.3
2019-04-26T04:32:22.885Z,13.3
2019-04-26T04:38:03.822Z,13.3
2019-04-26T04:43:19.645Z,13.2
2019-04-26T04:48:48.986Z,13.2
2019-04-26T04:54:15.466Z,13.2
2019-04-26T04:59:43.992Z,13.2
2019-04-26T05:05:11.059Z,13.2
2019-04-26T05:10:39.016Z,13.3
2019-04-26T05:16:07.654Z,13.3
2019-04-26T05:21:36.559Z,13.3
2019-04-26T05:27:05.487Z,13.3
2019-04-26T05:32:34.310Z,13.4
2019-04-26T05:38:02.330Z,13.4
2019-04-26T05:43:30.219Z,13.5
2019-04-26T05:48:58.046Z,13.5
2019-04-26T05:54:26.009Z,13.6
2019-04-26T05:59:54.999Z,13.7
2019-04-26T06:05:22.716Z,13.8
2019-04-26T06:10:51.510Z,13.9
2019-04-26T06:21:47.649Z,14
2019-04-26T06:27:15.757Z,14
2019-04-26T06:32:55.846Z,14
2019-04-26T06:38:11.378Z,14.2
2019-04-26T06:43:40.544Z,14.4
2019-04-26T06:49:09.524Z,14.5
2019-04-26T06:54:37.519Z,14.7
2019-04-26T07:00:06.747Z,14.8
2019-04-26T07:05:34.893Z,15
2019-04-26T07:11:03.527Z,15.1
2019-04-26T07:16:32.064Z,15.1
2019-04-26T07:27:27.957Z,15.1
2019-04-26T07:32:55.725Z,15
2019-04-26T07:38:24.949Z,14.9
2019-04-26T07:43:54.103Z,14.8
2019-04-26T07:49:21.753Z,14.6
2019-04-26T07:54:49.804Z,14.5
2019-04-26T08:05:47.659Z,14.4
2019-04-26T08:11:16.788Z,14.3
2019-04-26T08:16:45.759Z,14.2
2019-04-26T08:22:20.133Z,14.1
2019-04-26T08:27:41.548Z,13.9
2019-04-26T08:33:11.921Z,13.9
2019-04-26T08:38:39.115Z,14.1
2019-04-26T08:44:07.154Z,14.3
2019-04-26T08:49:35.026Z,14.5
2019-04-26T08:55:04.698Z,14.8
2019-04-26T09:00:31.572Z,15.2
2019-04-26T09:05:59.354Z,15.5
2019-04-26T09:11:33.295Z,15.7
2019-04-26T09:16:55.773Z,15.8
2019-04-26T09:22:26.399Z,15.8
2019-04-26T09:27:53.989Z,15.8
2019-04-26T09:33:22.115Z,15.8
2019-04-26T09:38:50.602Z,15.8
2019-04-26T09:44:19.589Z,15.7
2019-04-26T09:55:15.400Z,15.3
2019-04-26T10:00:48.411Z,15.2
2019-04-26T10:06:21.066Z,15.2
2019-04-26T10:11:43.497Z,15.3
2019-04-26T10:17:11.441Z,15.3
2019-04-26T10:22:38.676Z,15.3
2019-04-26T10:28:07.755Z,15.2
2019-04-26T10:39:05.816Z,15.1
2019-04-26T10:44:35.609Z,15.1
2019-04-26T10:50:04.027Z,15
2019-04-26T10:55:32.881Z,15.1
2019-04-26T11:01:01.430Z,15.1
2019-04-26T11:11:59.017Z,14.7
2019-04-26T11:17:28.097Z,14.6
2019-04-26T11:22:57.902Z,14.4
2019-04-26T11:28:24.897Z,14.3
2019-04-26T11:34:04.607Z,14.2
2019-04-26T11:39:22.103Z,14.1
2019-04-26T11:44:50.855Z,14.1
2019-04-26T11:50:18.757Z,14.1
2019-04-26T11:55:51.296Z,14.1
2019-04-26T12:01:14.601Z,14.2
2019-04-26T12:06:42.553Z,14.4
2019-04-26T12:12:12.990Z,14.5
2019-04-26T12:17:41.283Z,14.5
2019-04-26T12:23:08.437Z,14.6
2019-04-26T12:28:39.868Z,14.7
2019-04-26T12:34:05.877Z,14.7
2019-04-26T12:39:36.572Z,14.7
2019-04-26T12:45:03.389Z,14.6
2019-04-26T12:50:35.105Z,14.5
2019-04-26T13:01:28.433Z,14.4
2019-04-26T13:06:56.269Z,14.4
2019-04-26T13:12:25.940Z,14.3
2019-04-26T13:23:25.289Z,14.7
2019-04-26T13:28:52.301Z,15.1
2019-04-26T13:34:18.392Z,15.4
2019-04-26T13:39:46.439Z,15.5
2019-04-26T13:45:14.806Z,15.6
2019-04-26T13:50:42.685Z,15.7
2019-04-26T14:01:48.626Z,15.9
2019-04-26T14:07:10.330Z,16
2019-04-26T14:12:38.011Z,15.9
2019-04-26T14:18:07.385Z,15.8
2019-04-26T14:23:35.209Z,15.8
2019-04-26T14:29:04.359Z,15.7
2019-04-26T14:34:36.092Z,15.5
2019-04-26T14:40:16.496Z,15.3
2019-04-26T14:45:29.726Z,15.1
2019-04-26T14:51:07.379Z,14.9
2019-04-26T14:56:29.208Z,14.8
2019-04-26T15:01:54.802Z,14.8
2019-04-26T15:07:23.601Z,14.8
2019-04-26T15:12:56.668Z,14.7
2019-04-26T15:18:19.429Z,14.5
2019-04-26T15:23:48.388Z,14.3
2019-04-26T15:29:16.216Z,14.2
2019-04-26T15:34:44.387Z,14.1
2019-04-26T15:40:12.744Z,14.1
2019-04-26T15:45:40.279Z,14.1
2019-04-26T15:51:08.068Z,14.1
2019-04-26T15:56:35.935Z,14.1
2019-04-26T16:02:03.872Z,14.1
2019-04-26T16:07:34.327Z,14.1
2019-04-26T16:13:16.010Z,14.1
2019-04-26T16:18:37.073Z,14.1
2019-04-26T16:23:58.221Z,14.1
2019-04-26T16:29:26.475Z,14.1
2019-04-26T16:34:54.408Z,14.1
2019-04-26T16:40:23.913Z,14.1
2019-04-26T16:45:54.209Z,14
2019-04-26T16:51:19.251Z,13.8
2019-04-26T16:56:47.021Z,13.7
2019-04-26T17:02:20.924Z,13.6
2019-04-26T17:07:43.690Z,13.6
2019-04-26T17:13:11.186Z,13.6
2019-04-26T17:18:59.472Z,13.6
2019-04-26T17:24:09.497Z,13.6
2019-04-26T17:29:35.445Z,13.5
2019-04-26T17:35:07.300Z,13.5
2019-04-26T17:40:36.271Z,13.4
2019-04-26T17:46:01.104Z,13.3
2019-04-26T17:51:32.491Z,13.2
2019-04-26T17:56:56.475Z,13.1
2019-04-26T18:02:40.114Z,13
2019-04-26T18:07:58.302Z,12.9
2019-04-26T18:13:22.109Z,12.9
2019-04-26T18:18:54.237Z,12.9
2019-04-26T18:24:19.791Z,12.8
2019-04-26T18:29:48.937Z,12.8
2019-04-26T18:35:16.887Z,12.7
2019-04-26T18:40:59.794Z,12.7
2019-04-26T18:46:13.055Z,12.6
2019-04-26T18:57:13.984Z,12.5
2019-04-26T19:02:37.204Z,12.4
2019-04-26T19:08:05.193Z,12.4
2019-04-26T19:13:36.383Z,12.3
2019-04-26T19:19:02.753Z,12.3
2019-04-26T19:24:30.127Z,12.2
2019-04-26T19:29:57.819Z,12.1
2019-04-26T19:35:26.138Z,12
2019-04-26T19:40:54.173Z,11.9
2019-04-26T19:46:25.167Z,11.9
2019-04-26T19:51:56.575Z,11.8
2019-04-26T19:57:21.667Z,11.8
2019-04-26T20:02:49.989Z,11.8
2019-04-26T20:08:16.730Z,11.8
2019-04-26T20:13:46.813Z,11.8
2019-04-26T20:19:17.614Z,11.7
2019-04-26T20:24:43.271Z,11.7
2019-04-26T20:30:09.561Z,11.7
2019-04-26T20:41:06.890Z,11.6
2019-04-26T20:46:37.676Z,11.5
2019-04-26T20:52:04.237Z,11.5
2019-04-26T20:57:34.321Z,11.6
2019-04-26T21:03:01.150Z,11.6
2019-04-26T21:08:28.299Z,11.7
2019-04-26T21:14:01.734Z,11.7
2019-04-26T21:25:32.407Z,11.7
2019-04-26T21:30:22.898Z,11.7
2019-04-26T21:35:52.954Z,11.7
2019-04-26T21:41:18.688Z,11.6
2019-04-26T21:46:49.466Z,11.7
2019-04-26T21:52:13.982Z,11.7
2019-04-26T21:57:41.542Z,11.7
2019-04-26T22:03:12.495Z,11.7
2019-04-26T22:08:37.920Z,11.7
2019-04-26T22:14:06.666Z,11.7
2019-04-26T22:19:35.305Z,11.7
2019-04-26T22:25:03.770Z,11.6
2019-04-26T22:30:30.991Z,11.5
2019-04-26T22:36:06.120Z,11.5
2019-04-26T22:41:28.460Z,11.5
2019-04-26T22:46:58.735Z,11.5
2019-04-26T22:52:24.417Z,11.5
2019-04-26T22:57:53.001Z,11.5
2019-04-26T23:03:19.626Z,11.5
2019-04-26T23:08:47.466Z,11.5
2019-04-26T23:14:17.371Z,11.5
2019-04-26T23:19:43.590Z,11.5
2019-04-26T23:25:10.819Z,11.5
2019-04-26T23:30:39.059Z,11.5
2019-04-26T23:36:06.680Z,11.5
2019-04-26T23:41:37.509Z,11.5
2019-04-26T23:47:02.702Z,11.5
2019-04-26T23:52:29.689Z,11.4
2019-04-26T23:57:57.749Z,11.4
